sensor_id;sensor_type;location;lat;lon;timestamp;P1;durP1;ratioP1;P2;durP2;ratioP2
5752;SDS011;2901;42.140;24.760;2023-03-31T00:01:34;3.60;;;2.40;;
5752;SDS011;2901;42.140;24.760;2023-03-31T00:04:00;4.13;;;2.88;;
5752;SDS011;2901;42.140;24.760;2023-03-31T00:06:28;2.88;;;2.67;;
5752;SDS011;2901;42.140;24.760;2023-03-31T00:08:54;3.05;;;2.85;;
5752;SDS011;2901;42.140;24.760;2023-03-31T00:11:20;3.28;;;2.63;;
5752;SDS011;2901;42.140;24.760;2023-03-31T00:13:46;6.88;;;2.85;;
5752;SDS011;2901;42.140;24.760;2023-03-31T00:16:12;3.20;;;2.60;;
5752;SDS011;2901;42.140;24.760;2023-03-31T00:18:37;2.95;;;2.72;;
5752;SDS011;2901;42.140;24.760;2023-03-31T00:21:08;3.58;;;3.28;;
5752;SDS011;2901;42.140;24.760;2023-03-31T00:23:58;3.25;;;2.95;;
5752;SDS011;2901;42.140;24.760;2023-03-31T00:26:26;3.03;;;2.80;;
5752;SDS011;2901;42.140;24.760;2023-03-31T00:28:52;2.67;;;2.50;;
5752;SDS011;2901;42.140;24.760;2023-03-31T00:31:17;3.42;;;2.75;;
5752;SDS011;2901;42.140;24.760;2023-03-31T00:33:43;19.58;;;5.70;;
5752;SDS011;2901;42.140;24.760;2023-03-31T00:36:09;16.70;;;5.20;;
5752;SDS011;2901;42.140;24.760;2023-03-31T00:38:34;7.38;;;3.28;;
5752;SDS011;2901;42.140;24.760;2023-03-31T00:41:00;4.20;;;3.05;;
5752;SDS011;2901;42.140;24.760;2023-03-31T00:43:31;3.70;;;3.10;;
5752;SDS011;2901;42.140;24.760;2023-03-31T00:46:01;3.13;;;2.92;;
5752;SDS011;2901;42.140;24.760;2023-03-31T00:48:49;2.47;;;2.38;;
5752;SDS011;2901;42.140;24.760;2023-03-31T00:51:21;5.10;;;4.40;;
5752;SDS011;2901;42.140;24.760;2023-03-31T00:53:51;13.52;;;6.80;;
5752;SDS011;2901;42.140;24.760;2023-03-31T00:56:21;4.22;;;3.92;;
5752;SDS011;2901;42.140;24.760;2023-03-31T00:58:48;5.88;;;2.85;;
5752;SDS011;2901;42.140;24.760;2023-03-31T01:01:17;3.20;;;2.83;;
5752;SDS011;2901;42.140;24.760;2023-03-31T01:03:45;2.88;;;2.67;;
5752;SDS011;2901;42.140;24.760;2023-03-31T01:06:12;2.95;;;2.63;;
5752;SDS011;2901;42.140;24.760;2023-03-31T01:08:43;3.67;;;3.10;;
5752;SDS011;2901;42.140;24.760;2023-03-31T01:11:12;2.65;;;2.45;;
5752;SDS011;2901;42.140;24.760;2023-03-31T01:13:40;4.60;;;2.80;;
5752;SDS011;2901;42.140;24.760;2023-03-31T01:16:07;2.75;;;2.55;;
5752;SDS011;2901;42.140;24.760;2023-03-31T01:18:33;2.65;;;2.45;;
5752;SDS011;2901;42.140;24.760;2023-03-31T01:27:13;7.25;;;3.55;;
5752;SDS011;2901;42.140;24.760;2023-03-31T01:46:55;3.38;;;3.08;;
5752;SDS011;2901;42.140;24.760;2023-03-31T01:49:33;5.35;;;2.75;;
5752;SDS011;2901;42.140;24.760;2023-03-31T01:52:14;5.65;;;3.53;;
5752;SDS011;2901;42.140;24.760;2023-03-31T01:57:38;4.18;;;3.65;;
5752;SDS011;2901;42.140;24.760;2023-03-31T02:00:11;4.55;;;3.60;;
5752;SDS011;2901;42.140;24.760;2023-03-31T02:05:13;4.78;;;4.38;;
5752;SDS011;2901;42.140;24.760;2023-03-31T02:07:45;5.45;;;4.22;;
5752;SDS011;2901;42.140;24.760;2023-03-31T02:10:14;4.50;;;4.20;;
5752;SDS011;2901;42.140;24.760;2023-03-31T02:12:41;8.60;;;4.20;;
5752;SDS011;2901;42.140;24.760;2023-03-31T02:15:10;4.35;;;4.05;;
5752;SDS011;2901;42.140;24.760;2023-03-31T02:17:42;5.75;;;4.38;;
5752;SDS011;2901;42.140;24.760;2023-03-31T02:20:11;4.28;;;3.88;;
5752;SDS011;2901;42.140;24.760;2023-03-31T02:22:40;13.15;;;4.93;;
5752;SDS011;2901;42.140;24.760;2023-03-31T02:25:10;8.23;;;4.38;;
5752;SDS011;2901;42.140;24.760;2023-03-31T02:27:40;6.57;;;4.78;;
5752;SDS011;2901;42.140;24.760;2023-03-31T02:30:09;5.85;;;3.72;;
5752;SDS011;2901;42.140;24.760;2023-03-31T02:32:42;7.25;;;4.43;;
5752;SDS011;2901;42.140;24.760;2023-03-31T02:35:19;14.25;;;4.50;;
5752;SDS011;2901;42.140;24.760;2023-03-31T02:37:46;4.72;;;3.22;;
5752;SDS011;2901;42.140;24.760;2023-03-31T02:40:18;8.55;;;4.95;;
5752;SDS011;2901;42.140;24.760;2023-03-31T02:42:46;7.78;;;4.13;;
5752;SDS011;2901;42.140;24.760;2023-03-31T03:03:03;4.07;;;3.70;;
5752;SDS011;2901;42.140;24.760;2023-03-31T03:13:50;5.60;;;3.85;;
5752;SDS011;2901;42.140;24.760;2023-03-31T03:19:00;10.57;;;4.43;;
5752;SDS011;2901;42.140;24.760;2023-03-31T03:21:29;4.13;;;3.72;;
5752;SDS011;2901;42.140;24.760;2023-03-31T03:23:54;5.93;;;3.60;;
5752;SDS011;2901;42.140;24.760;2023-03-31T03:26:20;8.52;;;3.90;;
5752;SDS011;2901;42.140;24.760;2023-03-31T03:28:47;9.02;;;3.28;;
5752;SDS011;2901;42.140;24.760;2023-03-31T03:31:13;7.25;;;2.92;;
5752;SDS011;2901;42.140;24.760;2023-03-31T03:33:39;4.40;;;3.53;;
5752;SDS011;2901;42.140;24.760;2023-03-31T03:36:06;4.70;;;3.55;;
5752;SDS011;2901;42.140;24.760;2023-03-31T03:38:32;4.93;;;3.25;;
5752;SDS011;2901;42.140;24.760;2023-03-31T03:40:57;4.65;;;4.03;;
5752;SDS011;2901;42.140;24.760;2023-03-31T03:43:22;12.07;;;4.90;;
5752;SDS011;2901;42.140;24.760;2023-03-31T03:45:48;11.25;;;5.00;;
5752;SDS011;2901;42.140;24.760;2023-03-31T03:48:16;9.88;;;4.25;;
5752;SDS011;2901;42.140;24.760;2023-03-31T03:50:41;4.60;;;4.07;;
5752;SDS011;2901;42.140;24.760;2023-03-31T03:53:07;6.63;;;4.95;;
5752;SDS011;2901;42.140;24.760;2023-03-31T03:55:32;6.00;;;4.13;;
5752;SDS011;2901;42.140;24.760;2023-03-31T03:57:58;7.25;;;4.28;;
5752;SDS011;2901;42.140;24.760;2023-03-31T04:00:24;7.88;;;4.47;;
5752;SDS011;2901;42.140;24.760;2023-03-31T04:02:49;3.97;;;3.67;;
5752;SDS011;2901;42.140;24.760;2023-03-31T04:05:15;4.85;;;4.45;;
5752;SDS011;2901;42.140;24.760;2023-03-31T04:07:40;4.05;;;3.75;;
5752;SDS011;2901;42.140;24.760;2023-03-31T04:10:06;3.75;;;3.42;;
5752;SDS011;2901;42.140;24.760;2023-03-31T04:12:35;5.65;;;3.80;;
5752;SDS011;2901;42.140;24.760;2023-03-31T04:15:00;3.90;;;3.50;;
5752;SDS011;2901;42.140;24.760;2023-03-31T04:17:26;4.88;;;3.15;;
5752;SDS011;2901;42.140;24.760;2023-03-31T04:20:02;4.72;;;3.47;;
5752;SDS011;2901;42.140;24.760;2023-03-31T04:22:31;4.05;;;3.65;;
5752;SDS011;2901;42.140;24.760;2023-03-31T04:25:04;8.35;;;3.60;;
5752;SDS011;2901;42.140;24.760;2023-03-31T04:27:38;3.45;;;3.15;;
5752;SDS011;2901;42.140;24.760;2023-03-31T04:30:14;6.93;;;3.70;;
5752;SDS011;2901;42.140;24.760;2023-03-31T04:32:51;4.07;;;3.70;;
5752;SDS011;2901;42.140;24.760;2023-03-31T04:35:23;6.77;;;4.03;;
5752;SDS011;2901;42.140;24.760;2023-03-31T04:37:51;9.77;;;4.00;;
5752;SDS011;2901;42.140;24.760;2023-03-31T04:40:22;4.07;;;3.78;;
5752;SDS011;2901;42.140;24.760;2023-03-31T04:42:49;7.60;;;4.68;;
5752;SDS011;2901;42.140;24.760;2023-03-31T04:45:15;9.48;;;4.72;;
5752;SDS011;2901;42.140;24.760;2023-03-31T04:47:40;5.00;;;4.35;;
5752;SDS011;2901;42.140;24.760;2023-03-31T04:50:06;15.88;;;5.82;;
5752;SDS011;2901;42.140;24.760;2023-03-31T04:52:32;6.30;;;5.22;;
5752;SDS011;2901;42.140;24.760;2023-03-31T04:54:57;5.78;;;4.18;;
5752;SDS011;2901;42.140;24.760;2023-03-31T04:57:23;11.18;;;5.25;;
5752;SDS011;2901;42.140;24.760;2023-03-31T04:59:48;4.97;;;4.47;;
5752;SDS011;2901;42.140;24.760;2023-03-31T05:02:13;6.22;;;4.90;;
5752;SDS011;2901;42.140;24.760;2023-03-31T05:04:45;7.43;;;5.05;;
5752;SDS011;2901;42.140;24.760;2023-03-31T05:07:11;8.25;;;5.53;;
5752;SDS011;2901;42.140;24.760;2023-03-31T05:09:36;6.65;;;5.63;;
5752;SDS011;2901;42.140;24.760;2023-03-31T05:12:02;6.50;;;4.65;;
5752;SDS011;2901;42.140;24.760;2023-03-31T05:14:27;5.80;;;4.93;;
5752;SDS011;2901;42.140;24.760;2023-03-31T05:16:54;8.20;;;4.97;;
5752;SDS011;2901;42.140;24.760;2023-03-31T05:19:21;6.70;;;5.32;;
5752;SDS011;2901;42.140;24.760;2023-03-31T05:21:47;7.10;;;4.85;;
5752;SDS011;2901;42.140;24.760;2023-03-31T05:24:13;5.45;;;4.68;;
5752;SDS011;2901;42.140;24.760;2023-03-31T05:26:38;4.88;;;3.75;;
5752;SDS011;2901;42.140;24.760;2023-03-31T05:29:05;5.78;;;3.60;;
5752;SDS011;2901;42.140;24.760;2023-03-31T05:31:30;7.45;;;4.32;;
5752;SDS011;2901;42.140;24.760;2023-03-31T05:33:56;5.55;;;5.05;;
5752;SDS011;2901;42.140;24.760;2023-03-31T05:36:21;3.67;;;3.40;;
5752;SDS011;2901;42.140;24.760;2023-03-31T05:38:47;4.60;;;4.25;;
5752;SDS011;2901;42.140;24.760;2023-03-31T05:41:13;5.18;;;4.63;;
5752;SDS011;2901;42.140;24.760;2023-03-31T05:43:40;5.18;;;4.13;;
5752;SDS011;2901;42.140;24.760;2023-03-31T05:46:07;4.88;;;3.88;;
5752;SDS011;2901;42.140;24.760;2023-03-31T05:48:33;7.28;;;4.68;;
5752;SDS011;2901;42.140;24.760;2023-03-31T05:50:59;5.18;;;4.80;;
5752;SDS011;2901;42.140;24.760;2023-03-31T05:53:26;13.20;;;5.65;;
5752;SDS011;2901;42.140;24.760;2023-03-31T05:55:56;10.02;;;5.30;;
5752;SDS011;2901;42.140;24.760;2023-03-31T05:58:23;15.25;;;7.03;;
5752;SDS011;2901;42.140;24.760;2023-03-31T06:00:49;9.52;;;5.00;;
5752;SDS011;2901;42.140;24.760;2023-03-31T06:03:17;7.43;;;5.20;;
5752;SDS011;2901;42.140;24.760;2023-03-31T06:05:46;8.32;;;5.00;;
5752;SDS011;2901;42.140;24.760;2023-03-31T06:08:13;6.53;;;5.25;;
5752;SDS011;2901;42.140;24.760;2023-03-31T06:10:38;8.98;;;5.10;;
5752;SDS011;2901;42.140;24.760;2023-03-31T06:13:04;21.35;;;5.63;;
5752;SDS011;2901;42.140;24.760;2023-03-31T06:15:29;7.22;;;6.18;;
5752;SDS011;2901;42.140;24.760;2023-03-31T06:17:55;12.77;;;6.50;;
5752;SDS011;2901;42.140;24.760;2023-03-31T06:20:21;15.35;;;7.00;;
5752;SDS011;2901;42.140;24.760;2023-03-31T06:22:46;18.45;;;7.53;;
5752;SDS011;2901;42.140;24.760;2023-03-31T06:25:11;12.18;;;6.57;;
5752;SDS011;2901;42.140;24.760;2023-03-31T06:27:37;13.40;;;6.28;;
5752;SDS011;2901;42.140;24.760;2023-03-31T06:30:02;15.75;;;6.10;;
5752;SDS011;2901;42.140;24.760;2023-03-31T06:32:28;28.98;;;7.60;;
5752;SDS011;2901;42.140;24.760;2023-03-31T06:34:53;11.30;;;6.18;;
5752;SDS011;2901;42.140;24.760;2023-03-31T06:37:18;17.13;;;6.93;;
5752;SDS011;2901;42.140;24.760;2023-03-31T06:39:44;14.27;;;5.88;;
5752;SDS011;2901;42.140;24.760;2023-03-31T06:42:09;13.65;;;5.93;;
5752;SDS011;2901;42.140;24.760;2023-03-31T06:44:35;20.20;;;6.68;;
5752;SDS011;2901;42.140;24.760;2023-03-31T06:47:00;20.65;;;7.53;;
5752;SDS011;2901;42.140;24.760;2023-03-31T06:49:26;7.95;;;6.18;;
5752;SDS011;2901;42.140;24.760;2023-03-31T06:51:51;12.35;;;6.60;;
5752;SDS011;2901;42.140;24.760;2023-03-31T06:54:16;15.57;;;7.47;;
5752;SDS011;2901;42.140;24.760;2023-03-31T06:56:42;8.15;;;6.05;;
5752;SDS011;2901;42.140;24.760;2023-03-31T06:59:07;9.15;;;5.75;;
5752;SDS011;2901;42.140;24.760;2023-03-31T07:01:32;8.55;;;5.97;;
5752;SDS011;2901;42.140;24.760;2023-03-31T07:04:01;12.25;;;5.72;;
5752;SDS011;2901;42.140;24.760;2023-03-31T07:06:27;7.47;;;5.85;;
5752;SDS011;2901;42.140;24.760;2023-03-31T07:08:52;9.90;;;7.05;;
5752;SDS011;2901;42.140;24.760;2023-03-31T07:11:17;9.02;;;5.75;;
5752;SDS011;2901;42.140;24.760;2023-03-31T07:13:43;10.63;;;6.30;;
5752;SDS011;2901;42.140;24.760;2023-03-31T07:16:08;14.75;;;7.05;;
5752;SDS011;2901;42.140;24.760;2023-03-31T07:18:34;12.48;;;7.82;;
5752;SDS011;2901;42.140;24.760;2023-03-31T07:21:01;9.18;;;7.47;;
5752;SDS011;2901;42.140;24.760;2023-03-31T07:23:27;10.60;;;7.78;;
5752;SDS011;2901;42.140;24.760;2023-03-31T07:25:52;20.77;;;8.80;;
5752;SDS011;2901;42.140;24.760;2023-03-31T07:28:18;19.15;;;8.30;;
5752;SDS011;2901;42.140;24.760;2023-03-31T07:30:43;22.52;;;9.52;;
5752;SDS011;2901;42.140;24.760;2023-03-31T07:33:09;23.50;;;10.77;;
5752;SDS011;2901;42.140;24.760;2023-03-31T07:35:38;21.38;;;10.02;;
5752;SDS011;2901;42.140;24.760;2023-03-31T07:38:04;29.45;;;11.50;;
5752;SDS011;2901;42.140;24.760;2023-03-31T07:40:31;19.60;;;8.63;;
5752;SDS011;2901;42.140;24.760;2023-03-31T07:42:57;15.48;;;8.57;;
5752;SDS011;2901;42.140;24.760;2023-03-31T07:45:23;25.10;;;8.45;;
5752;SDS011;2901;42.140;24.760;2023-03-31T07:47:50;15.48;;;8.57;;
5752;SDS011;2901;42.140;24.760;2023-03-31T07:50:16;14.52;;;8.10;;
5752;SDS011;2901;42.140;24.760;2023-03-31T07:52:42;10.70;;;7.32;;
5752;SDS011;2901;42.140;24.760;2023-03-31T07:55:08;14.48;;;7.70;;
5752;SDS011;2901;42.140;24.760;2023-03-31T07:57:35;15.25;;;7.93;;
5752;SDS011;2901;42.140;24.760;2023-03-31T08:00:02;18.08;;;7.60;;
5752;SDS011;2901;42.140;24.760;2023-03-31T08:02:32;9.25;;;7.20;;
5752;SDS011;2901;42.140;24.760;2023-03-31T08:04:58;11.43;;;8.38;;
5752;SDS011;2901;42.140;24.760;2023-03-31T08:07:24;19.70;;;9.38;;
5752;SDS011;2901;42.140;24.760;2023-03-31T08:09:50;14.68;;;8.88;;
5752;SDS011;2901;42.140;24.760;2023-03-31T08:12:15;16.08;;;8.68;;
5752;SDS011;2901;42.140;24.760;2023-03-31T08:14:41;15.77;;;8.82;;
5752;SDS011;2901;42.140;24.760;2023-03-31T08:17:07;16.95;;;10.40;;
5752;SDS011;2901;42.140;24.760;2023-03-31T08:19:34;24.20;;;9.63;;
5752;SDS011;2901;42.140;24.760;2023-03-31T08:21:59;13.52;;;9.27;;
5752;SDS011;2901;42.140;24.760;2023-03-31T08:24:24;16.55;;;9.07;;
5752;SDS011;2901;42.140;24.760;2023-03-31T08:26:50;19.77;;;9.98;;
5752;SDS011;2901;42.140;24.760;2023-03-31T08:29:15;15.88;;;9.32;;
5752;SDS011;2901;42.140;24.760;2023-03-31T08:31:40;80.95;;;13.13;;
5752;SDS011;2901;42.140;24.760;2023-03-31T08:34:06;20.98;;;10.18;;
5752;SDS011;2901;42.140;24.760;2023-03-31T08:36:31;16.88;;;10.50;;
5752;SDS011;2901;42.140;24.760;2023-03-31T08:38:57;23.23;;;10.20;;
5752;SDS011;2901;42.140;24.760;2023-03-31T08:43:56;13.88;;;9.68;;
5752;SDS011;2901;42.140;24.760;2023-03-31T08:46:27;21.05;;;10.20;;
5752;SDS011;2901;42.140;24.760;2023-03-31T08:48:55;21.95;;;10.13;;
5752;SDS011;2901;42.140;24.760;2023-03-31T08:54:11;36.50;;;11.07;;
5752;SDS011;2901;42.140;24.760;2023-03-31T08:56:43;16.70;;;8.43;;
5752;SDS011;2901;42.140;24.760;2023-03-31T08:59:21;20.17;;;8.98;;
5752;SDS011;2901;42.140;24.760;2023-03-31T09:02:14;21.13;;;8.95;;
5752;SDS011;2901;42.140;24.760;2023-03-31T09:07:19;22.00;;;8.95;;
5752;SDS011;2901;42.140;24.760;2023-03-31T09:12:49;17.77;;;10.00;;
5752;SDS011;2901;42.140;24.760;2023-03-31T09:23:42;14.98;;;8.95;;
5752;SDS011;2901;42.140;24.760;2023-03-31T09:29:09;16.90;;;7.45;;
5752;SDS011;2901;42.140;24.760;2023-03-31T09:31:43;12.88;;;7.57;;
5752;SDS011;2901;42.140;24.760;2023-03-31T09:34:14;9.90;;;8.10;;
5752;SDS011;2901;42.140;24.760;2023-03-31T09:36:41;10.20;;;7.13;;
5752;SDS011;2901;42.140;24.760;2023-03-31T09:39:09;11.60;;;7.00;;
5752;SDS011;2901;42.140;24.760;2023-03-31T09:41:37;9.70;;;4.65;;
5752;SDS011;2901;42.140;24.760;2023-03-31T09:44:16;7.25;;;2.97;;
5752;SDS011;2901;42.140;24.760;2023-03-31T09:46:51;4.20;;;2.88;;
5752;SDS011;2901;42.140;24.760;2023-03-31T09:49:22;2.13;;;2.00;;
5752;SDS011;2901;42.140;24.760;2023-03-31T09:52:24;8.77;;;3.67;;
5752;SDS011;2901;42.140;24.760;2023-03-31T09:54:49;3.72;;;2.28;;
5752;SDS011;2901;42.140;24.760;2023-03-31T09:57:29;3.28;;;2.60;;
5752;SDS011;2901;42.140;24.760;2023-03-31T10:00:04;8.80;;;2.90;;
5752;SDS011;2901;42.140;24.760;2023-03-31T10:02:38;2.78;;;2.53;;
5752;SDS011;2901;42.140;24.760;2023-03-31T10:05:05;3.13;;;2.80;;
5752;SDS011;2901;42.140;24.760;2023-03-31T10:07:42;4.40;;;3.00;;
5752;SDS011;2901;42.140;24.760;2023-03-31T10:10:09;4.63;;;2.95;;
5752;SDS011;2901;42.140;24.760;2023-03-31T10:12:48;5.53;;;3.25;;
5752;SDS011;2901;42.140;24.760;2023-03-31T10:15:20;5.93;;;2.58;;
5752;SDS011;2901;42.140;24.760;2023-03-31T10:17:47;3.90;;;2.97;;
5752;SDS011;2901;42.140;24.760;2023-03-31T10:25:50;8.57;;;3.30;;
5752;SDS011;2901;42.140;24.760;2023-03-31T10:28:17;14.93;;;3.38;;
5752;SDS011;2901;42.140;24.760;2023-03-31T10:30:51;4.35;;;3.42;;
5752;SDS011;2901;42.140;24.760;2023-03-31T10:33:23;5.82;;;3.88;;
5752;SDS011;2901;42.140;24.760;2023-03-31T10:35:58;3.35;;;3.05;;
5752;SDS011;2901;42.140;24.760;2023-03-31T10:38:46;5.00;;;3.42;;
5752;SDS011;2901;42.140;24.760;2023-03-31T10:41:16;7.53;;;3.47;;
5752;SDS011;2901;42.140;24.760;2023-03-31T10:44:00;5.18;;;3.38;;
5752;SDS011;2901;42.140;24.760;2023-03-31T10:46:46;6.47;;;3.50;;
5752;SDS011;2901;42.140;24.760;2023-03-31T10:51:52;5.05;;;3.65;;
5752;SDS011;2901;42.140;24.760;2023-03-31T10:54:23;3.55;;;2.67;;
5752;SDS011;2901;42.140;24.760;2023-03-31T10:56:53;6.88;;;3.40;;
5752;SDS011;2901;42.140;24.760;2023-03-31T11:09:43;7.00;;;3.20;;
5752;SDS011;2901;42.140;24.760;2023-03-31T11:12:36;3.67;;;3.47;;
5752;SDS011;2901;42.140;24.760;2023-03-31T11:17:46;4.20;;;3.83;;
5752;SDS011;2901;42.140;24.760;2023-03-31T11:23:47;3.78;;;3.47;;
5752;SDS011;2901;42.140;24.760;2023-03-31T11:32:15;3.30;;;3.10;;
5752;SDS011;2901;42.140;24.760;2023-03-31T11:54:33;3.97;;;3.13;;
5752;SDS011;2901;42.140;24.760;2023-03-31T11:57:09;2.90;;;2.70;;
5752;SDS011;2901;42.140;24.760;2023-03-31T11:59:40;7.97;;;3.00;;
5752;SDS011;2901;42.140;24.760;2023-03-31T12:02:17;6.80;;;2.85;;
5752;SDS011;2901;42.140;24.760;2023-03-31T12:04:49;4.30;;;3.33;;
5752;SDS011;2901;42.140;24.760;2023-03-31T12:13:01;2.95;;;2.67;;
5752;SDS011;2901;42.140;24.760;2023-03-31T12:15:36;6.45;;;3.50;;
5752;SDS011;2901;42.140;24.760;2023-03-31T12:18:13;4.10;;;3.05;;
5752;SDS011;2901;42.140;24.760;2023-03-31T12:20:44;2.33;;;2.22;;
5752;SDS011;2901;42.140;24.760;2023-03-31T12:23:22;2.92;;;2.70;;
5752;SDS011;2901;42.140;24.760;2023-03-31T12:28:23;6.03;;;2.17;;
5752;SDS011;2901;42.140;24.760;2023-03-31T12:30:51;5.55;;;2.33;;
5752;SDS011;2901;42.140;24.760;2023-03-31T12:33:39;2.83;;;2.05;;
5752;SDS011;2901;42.140;24.760;2023-03-31T12:45:30;2.58;;;1.20;;
5752;SDS011;2901;42.140;24.760;2023-03-31T12:50:52;4.45;;;1.60;;
5752;SDS011;2901;42.140;24.760;2023-03-31T12:56:23;2.85;;;1.88;;
5752;SDS011;2901;42.140;24.760;2023-03-31T12:58:48;2.33;;;2.13;;
5752;SDS011;2901;42.140;24.760;2023-03-31T13:01:20;3.50;;;1.85;;
5752;SDS011;2901;42.140;24.760;2023-03-31T13:03:48;6.47;;;1.40;;
5752;SDS011;2901;42.140;24.760;2023-03-31T13:09:05;1.60;;;1.50;;
5752;SDS011;2901;42.140;24.760;2023-03-31T13:11:51;1.70;;;1.48;;
5752;SDS011;2901;42.140;24.760;2023-03-31T13:14:20;2.92;;;1.35;;
5752;SDS011;2901;42.140;24.760;2023-03-31T13:16:49;2.83;;;1.40;;
5752;SDS011;2901;42.140;24.760;2023-03-31T13:19:29;3.22;;;2.00;;
5752;SDS011;2901;42.140;24.760;2023-03-31T13:21:57;2.25;;;1.30;;
5752;SDS011;2901;42.140;24.760;2023-03-31T13:24:25;3.10;;;1.50;;
5752;SDS011;2901;42.140;24.760;2023-03-31T13:26:53;1.73;;;1.42;;
5752;SDS011;2901;42.140;24.760;2023-03-31T13:29:39;3.35;;;1.52;;
5752;SDS011;2901;42.140;24.760;2023-03-31T13:32:17;4.45;;;1.48;;
5752;SDS011;2901;42.140;24.760;2023-03-31T13:34:53;3.38;;;1.58;;
5752;SDS011;2901;42.140;24.760;2023-03-31T14:02:10;5.35;;;2.10;;
5752;SDS011;2901;42.140;24.760;2023-03-31T14:07:30;4.00;;;1.60;;
5752;SDS011;2901;42.140;24.760;2023-03-31T14:09:58;6.15;;;2.22;;
5752;SDS011;2901;42.140;24.760;2023-03-31T14:12:31;6.97;;;1.98;;
5752;SDS011;2901;42.140;24.760;2023-03-31T14:14:58;3.90;;;1.85;;
5752;SDS011;2901;42.140;24.760;2023-03-31T14:17:28;2.85;;;2.05;;
5752;SDS011;2901;42.140;24.760;2023-03-31T14:20:05;4.18;;;2.28;;
5752;SDS011;2901;42.140;24.760;2023-03-31T14:34:19;5.10;;;1.77;;
5752;SDS011;2901;42.140;24.760;2023-03-31T14:36:59;5.88;;;2.10;;
5752;SDS011;2901;42.140;24.760;2023-03-31T14:39:32;3.42;;;1.75;;
5752;SDS011;2901;42.140;24.760;2023-03-31T14:42:19;1.50;;;1.40;;
5752;SDS011;2901;42.140;24.760;2023-03-31T14:44:53;4.20;;;2.05;;
5752;SDS011;2901;42.140;24.760;2023-03-31T14:47:21;2.15;;;1.92;;
5752;SDS011;2901;42.140;24.760;2023-03-31T14:50:05;3.17;;;2.00;;
5752;SDS011;2901;42.140;24.760;2023-03-31T14:52:38;3.38;;;2.17;;
5752;SDS011;2901;42.140;24.760;2023-03-31T14:55:04;3.00;;;1.60;;
5752;SDS011;2901;42.140;24.760;2023-03-31T14:57:31;3.78;;;2.22;;
5752;SDS011;2901;42.140;24.760;2023-03-31T15:00:02;1.80;;;1.70;;
5752;SDS011;2901;42.140;24.760;2023-03-31T15:02:33;2.47;;;1.70;;
5752;SDS011;2901;42.140;24.760;2023-03-31T15:05:24;2.38;;;2.10;;
5752;SDS011;2901;42.140;24.760;2023-03-31T15:07:50;3.63;;;1.60;;
5752;SDS011;2901;42.140;24.760;2023-03-31T15:10:18;2.60;;;1.50;;
5752;SDS011;2901;42.140;24.760;2023-03-31T15:12:45;4.50;;;1.65;;
5752;SDS011;2901;42.140;24.760;2023-03-31T15:15:12;2.45;;;1.90;;
5752;SDS011;2901;42.140;24.760;2023-03-31T15:17:40;4.32;;;1.90;;
5752;SDS011;2901;42.140;24.760;2023-03-31T15:20:19;2.75;;;2.03;;
5752;SDS011;2901;42.140;24.760;2023-03-31T15:22:45;4.30;;;2.72;;
5752;SDS011;2901;42.140;24.760;2023-03-31T15:25:12;3.33;;;2.70;;
5752;SDS011;2901;42.140;24.760;2023-03-31T15:27:42;4.88;;;3.10;;
5752;SDS011;2901;42.140;24.760;2023-03-31T15:30:16;6.80;;;2.95;;
5752;SDS011;2901;42.140;24.760;2023-03-31T15:32:43;3.67;;;2.53;;
5752;SDS011;2901;42.140;24.760;2023-03-31T15:35:18;4.75;;;2.60;;
5752;SDS011;2901;42.140;24.760;2023-03-31T15:37:44;3.40;;;3.15;;
5752;SDS011;2901;42.140;24.760;2023-03-31T15:48:15;3.72;;;2.95;;
5752;SDS011;2901;42.140;24.760;2023-03-31T15:50:44;3.08;;;1.80;;
5752;SDS011;2901;42.140;24.760;2023-03-31T15:53:28;4.47;;;2.90;;
5752;SDS011;2901;42.140;24.760;2023-03-31T15:56:02;5.40;;;3.70;;
5752;SDS011;2901;42.140;24.760;2023-03-31T15:58:45;11.50;;;2.65;;
5752;SDS011;2901;42.140;24.760;2023-03-31T16:01:17;2.22;;;1.95;;
5752;SDS011;2901;42.140;24.760;2023-03-31T16:03:43;3.40;;;2.17;;
5752;SDS011;2901;42.140;24.760;2023-03-31T16:06:14;4.47;;;2.10;;
5752;SDS011;2901;42.140;24.760;2023-03-31T16:11:32;4.53;;;2.33;;
5752;SDS011;2901;42.140;24.760;2023-03-31T16:14:04;7.45;;;2.30;;
5752;SDS011;2901;42.140;24.760;2023-03-31T16:16:34;2.33;;;2.13;;
5752;SDS011;2901;42.140;24.760;2023-03-31T16:19:01;2.25;;;2.13;;
5752;SDS011;2901;42.140;24.760;2023-03-31T16:21:33;11.60;;;9.13;;
5752;SDS011;2901;42.140;24.760;2023-03-31T16:24:03;9.52;;;2.95;;
5752;SDS011;2901;42.140;24.760;2023-03-31T16:26:29;5.15;;;2.47;;
5752;SDS011;2901;42.140;24.760;2023-03-31T16:28:55;9.70;;;2.75;;
5752;SDS011;2901;42.140;24.760;2023-03-31T16:33:58;2.28;;;2.08;;
5752;SDS011;2901;42.140;24.760;2023-03-31T16:36:24;4.45;;;2.22;;
5752;SDS011;2901;42.140;24.760;2023-03-31T16:38:51;6.70;;;3.05;;
5752;SDS011;2901;42.140;24.760;2023-03-31T16:41:21;4.85;;;2.50;;
5752;SDS011;2901;42.140;24.760;2023-03-31T16:43:51;4.75;;;2.63;;
5752;SDS011;2901;42.140;24.760;2023-03-31T16:46:18;4.30;;;2.95;;
5752;SDS011;2901;42.140;24.760;2023-03-31T16:48:44;15.32;;;3.90;;
5752;SDS011;2901;42.140;24.760;2023-03-31T16:51:09;8.38;;;4.35;;
5752;SDS011;2901;42.140;24.760;2023-03-31T16:53:35;8.93;;;3.92;;
5752;SDS011;2901;42.140;24.760;2023-03-31T16:56:01;6.88;;;5.53;;
5752;SDS011;2901;42.140;24.760;2023-03-31T16:58:27;8.15;;;6.10;;
5752;SDS011;2901;42.140;24.760;2023-03-31T17:00:53;7.57;;;6.30;;
5752;SDS011;2901;42.140;24.760;2023-03-31T17:03:19;8.80;;;7.35;;
5752;SDS011;2901;42.140;24.760;2023-03-31T17:05:46;8.70;;;7.93;;
5752;SDS011;2901;42.140;24.760;2023-03-31T17:08:14;8.10;;;7.13;;
5752;SDS011;2901;42.140;24.760;2023-03-31T17:10:40;13.32;;;7.30;;
5752;SDS011;2901;42.140;24.760;2023-03-31T17:13:06;7.82;;;5.97;;
5752;SDS011;2901;42.140;24.760;2023-03-31T17:15:33;12.25;;;6.30;;
5752;SDS011;2901;42.140;24.760;2023-03-31T17:18:00;16.90;;;6.97;;
5752;SDS011;2901;42.140;24.760;2023-03-31T17:20:28;12.43;;;7.00;;
5752;SDS011;2901;42.140;24.760;2023-03-31T17:22:54;16.73;;;8.63;;
5752;SDS011;2901;42.140;24.760;2023-03-31T17:25:20;15.52;;;9.13;;
5752;SDS011;2901;42.140;24.760;2023-03-31T17:27:46;10.20;;;7.53;;
5752;SDS011;2901;42.140;24.760;2023-03-31T17:30:11;13.70;;;6.18;;
5752;SDS011;2901;42.140;24.760;2023-03-31T17:32:37;15.57;;;6.13;;
5752;SDS011;2901;42.140;24.760;2023-03-31T17:35:03;11.02;;;5.63;;
5752;SDS011;2901;42.140;24.760;2023-03-31T17:37:31;11.10;;;7.18;;
5752;SDS011;2901;42.140;24.760;2023-03-31T17:39:57;14.02;;;7.47;;
5752;SDS011;2901;42.140;24.760;2023-03-31T17:42:22;13.07;;;7.90;;
5752;SDS011;2901;42.140;24.760;2023-03-31T17:44:47;20.77;;;13.40;;
5752;SDS011;2901;42.140;24.760;2023-03-31T17:47:15;11.98;;;6.20;;
5752;SDS011;2901;42.140;24.760;2023-03-31T17:49:41;16.63;;;8.07;;
5752;SDS011;2901;42.140;24.760;2023-03-31T17:52:07;30.00;;;13.18;;
5752;SDS011;2901;42.140;24.760;2023-03-31T17:54:33;21.20;;;14.18;;
5752;SDS011;2901;42.140;24.760;2023-03-31T17:56:58;31.63;;;13.52;;
5752;SDS011;2901;42.140;24.760;2023-03-31T17:59:24;27.42;;;13.55;;
5752;SDS011;2901;42.140;24.760;2023-03-31T18:01:49;30.42;;;15.13;;
5752;SDS011;2901;42.140;24.760;2023-03-31T18:04:15;31.88;;;13.55;;
5752;SDS011;2901;42.140;24.760;2023-03-31T18:06:40;20.30;;;13.73;;
5752;SDS011;2901;42.140;24.760;2023-03-31T18:09:08;30.70;;;12.70;;
5752;SDS011;2901;42.140;24.760;2023-03-31T18:11:34;25.40;;;10.63;;
5752;SDS011;2901;42.140;24.760;2023-03-31T18:14:01;22.80;;;11.10;;
5752;SDS011;2901;42.140;24.760;2023-03-31T18:16:27;19.30;;;11.15;;
5752;SDS011;2901;42.140;24.760;2023-03-31T18:18:54;69.95;;;35.45;;
5752;SDS011;2901;42.140;24.760;2023-03-31T18:21:19;84.38;;;50.72;;
5752;SDS011;2901;42.140;24.760;2023-03-31T18:23:45;56.58;;;27.35;;
5752;SDS011;2901;42.140;24.760;2023-03-31T18:26:16;39.95;;;19.52;;
5752;SDS011;2901;42.140;24.760;2023-03-31T18:28:43;27.60;;;12.50;;
5752;SDS011;2901;42.140;24.760;2023-03-31T18:31:08;20.52;;;11.73;;
5752;SDS011;2901;42.140;24.760;2023-03-31T18:33:34;36.83;;;13.15;;
5752;SDS011;2901;42.140;24.760;2023-03-31T18:36:00;24.92;;;12.55;;